createdAt,value
2022-12-03T00:00:47.256Z,78.85
2022-12-03T00:03:15.384Z,80.50
2022-12-03T00:05:48.734Z,86.82
2022-12-03T00:08:16.023Z,77.53
2022-12-03T00:10:42.735Z,85.07
2022-12-03T00:13:09.479Z,80.70
2022-12-03T00:15:36.111Z,85.15
2022-12-03T00:18:02.748Z,75.63
2022-12-03T00:20:30.793Z,79.72
2022-12-03T00:22:57.403Z,81.20
2022-12-03T00:25:24.014Z,80.18
2022-12-03T00:27:50.650Z,80.50
2022-12-03T00:30:17.527Z,80.25
2022-12-03T00:32:44.238Z,71.95
2022-12-03T00:35:10.805Z,76.93
2022-12-03T00:37:38.835Z,78.82
2022-12-03T00:40:06.864Z,72.60
2022-12-03T00:42:33.598Z,83.88
2022-12-03T00:45:00.274Z,75.10
2022-12-03T00:47:26.919Z,74.10
2022-12-03T00:49:53.526Z,77.20
2022-12-03T00:52:20.198Z,75.15
2022-12-03T00:54:48.177Z,74.03
2022-12-03T00:57:14.806Z,74.68
2022-12-03T00:59:41.434Z,80.18
2022-12-03T01:02:08.622Z,76.63
2022-12-03T01:04:35.387Z,87.90
2022-12-03T01:07:02.038Z,73.63
2022-12-03T01:09:28.685Z,74.18
2022-12-03T01:11:56.690Z,75.95
2022-12-03T01:14:23.473Z,81.10
2022-12-03T01:16:50.170Z,78.50
2022-12-03T01:19:17.716Z,77.57
2022-12-03T01:21:46.111Z,70.57
2022-12-03T01:24:13.051Z,81.97
2022-12-03T01:26:39.805Z,74.18
2022-12-03T01:29:08.077Z,82.82
2022-12-03T01:31:34.727Z,84.97
2022-12-03T01:34:01.399Z,75.10
2022-12-03T01:36:27.969Z,74.97
2022-12-03T01:38:54.572Z,83.82
2022-12-03T01:41:23.718Z,78.22
2022-12-03T01:43:52.353Z,77.03
2022-12-03T01:46:23.609Z,76.43
2022-12-03T01:48:53.622Z,75.35
2022-12-03T01:51:20.240Z,83.43
2022-12-03T01:53:48.701Z,70.95
2022-12-03T01:56:17.167Z,77.93
2022-12-03T01:58:45.604Z,78.35
2022-12-03T02:01:15.572Z,74.63
2022-12-03T02:03:44.382Z,74.07
2022-12-03T02:06:15.971Z,77.28
2022-12-03T02:08:42.913Z,86.15
2022-12-03T02:11:17.885Z,79.13
2022-12-03T02:13:44.818Z,80.18
2022-12-03T02:16:11.556Z,84.28
2022-12-03T02:18:38.219Z,80.13
2022-12-03T02:21:15.858Z,78.93
2022-12-03T02:23:50.982Z,82.70
2022-12-03T02:26:19.220Z,84.45
2022-12-03T02:28:46.034Z,82.32
2022-12-03T02:31:12.916Z,75.90
2022-12-03T02:33:39.746Z,76.20
2022-12-03T02:36:06.821Z,71.43
2022-12-03T02:38:35.658Z,79.90
2022-12-03T02:41:06.413Z,84.88
2022-12-03T02:43:34.464Z,77.95
2022-12-03T02:46:03.627Z,76.38
2022-12-03T02:48:34.638Z,83.45
2022-12-03T02:51:04.394Z,79.20
2022-12-03T02:53:34.875Z,81.07
2022-12-03T02:56:03.384Z,79.60
2022-12-03T02:58:32.338Z,76.03
2022-12-03T03:01:01.873Z,84.78
2022-12-03T03:03:31.025Z,79.00
2022-12-03T03:06:01.102Z,84.32
2022-12-03T03:08:29.123Z,77.05
2022-12-03T03:10:56.521Z,74.72
2022-12-03T03:13:23.492Z,80.05
2022-12-03T03:15:50.240Z,80.22
2022-12-03T03:18:18.943Z,80.38
2022-12-03T03:20:45.929Z,77.55
2022-12-03T03:23:18.500Z,79.05
2022-12-03T03:25:48.257Z,73.45
2022-12-03T03:28:15.641Z,81.63
2022-12-03T03:30:43.930Z,74.93
2022-12-03T03:33:11.140Z,75.95
2022-12-03T03:35:39.757Z,82.65
2022-12-03T03:38:07.964Z,77.60
2022-12-03T03:40:34.997Z,80.63
2022-12-03T03:43:01.803Z,97.68
2022-12-03T03:45:29.547Z,81.13
2022-12-03T03:47:57.978Z,85.60
2022-12-03T03:50:25.663Z,73.82
2022-12-03T03:52:54.859Z,80.20
2022-12-03T03:55:21.596Z,77.70
2022-12-03T03:57:48.681Z,84.75
2022-12-03T04:00:16.408Z,79.05
2022-12-03T04:02:43.557Z,92.13
2022-12-03T04:05:16.751Z,86.93
2022-12-03T04:07:43.485Z,91.88
2022-12-03T04:10:12.825Z,73.45
2022-12-03T04:12:39.415Z,80.43
2022-12-03T04:15:07.508Z,90.47
2022-12-03T04:17:34.104Z,79.20
2022-12-03T04:20:00.680Z,80.65
2022-12-03T04:22:27.385Z,88.53
2022-12-03T04:24:54.406Z,90.03
2022-12-03T04:27:22.619Z,82.70
2022-12-03T04:29:49.319Z,86.63
2022-12-03T04:32:16.196Z,85.20
2022-12-03T04:34:42.916Z,94.05
2022-12-03T04:37:09.709Z,83.90
2022-12-03T04:39:36.519Z,85.18
2022-12-03T04:42:04.013Z,84.28
2022-12-03T04:44:32.448Z,79.60
2022-12-03T04:46:59.105Z,82.68
2022-12-03T04:49:25.878Z,80.40
2022-12-03T04:51:52.539Z,89.40
2022-12-03T04:54:19.238Z,79.53
2022-12-03T04:56:46.306Z,87.28
2022-12-03T04:59:16.216Z,84.65
2022-12-03T05:01:44.994Z,84.20
2022-12-03T05:04:12.139Z,79.93
2022-12-03T05:06:38.792Z,79.32
2022-12-03T05:09:05.597Z,85.78
2022-12-03T05:11:32.387Z,85.82
2022-12-03T05:13:59.020Z,85.22
2022-12-03T05:16:25.676Z,79.50
2022-12-03T05:18:53.726Z,92.72
2022-12-03T05:21:20.394Z,80.60
2022-12-03T05:23:47.063Z,77.75
2022-12-03T05:26:13.682Z,81.25
2022-12-03T05:28:40.366Z,88.13
2022-12-03T05:31:07.205Z,85.50
2022-12-03T05:33:33.938Z,81.65
2022-12-03T05:36:01.930Z,84.90
2022-12-03T05:38:28.574Z,83.35
2022-12-03T05:40:55.901Z,82.88
2022-12-03T05:43:22.529Z,86.70
2022-12-03T05:45:49.192Z,87.70
2022-12-03T05:48:16.830Z,88.85
2022-12-03T05:50:45.356Z,81.05
2022-12-03T05:53:14.520Z,76.22
2022-12-03T05:55:41.422Z,89.70
2022-12-03T05:58:08.182Z,78.55
2022-12-03T06:00:42.093Z,74.45
2022-12-03T06:03:10.350Z,87.85
2022-12-03T06:05:37.237Z,87.88
2022-12-03T06:08:04.100Z,86.63
2022-12-03T06:10:32.247Z,92.53
2022-12-03T06:12:58.869Z,92.80
2022-12-03T06:15:25.450Z,86.45
2022-12-03T06:17:52.058Z,92.43
2022-12-03T06:20:20.635Z,91.55
2022-12-03T06:22:47.824Z,104.18
2022-12-03T06:25:15.134Z,96.75
2022-12-03T06:27:43.162Z,91.82
2022-12-03T06:30:12.007Z,96.35
2022-12-03T06:32:38.589Z,99.18
2022-12-03T06:35:05.869Z,99.03
2022-12-03T06:37:32.534Z,91.80
2022-12-03T06:39:59.160Z,93.65
2022-12-03T06:42:25.750Z,89.82
2022-12-03T06:44:54.003Z,89.38
2022-12-03T06:47:20.824Z,100.90
2022-12-03T06:49:47.417Z,101.22
2022-12-03T06:52:14.019Z,97.55
2022-12-03T06:54:40.621Z,100.53
2022-12-03T06:57:07.333Z,87.10
2022-12-03T06:59:34.033Z,92.10
2022-12-03T07:02:02.145Z,84.10
2022-12-03T07:04:28.893Z,89.40
2022-12-03T07:06:55.546Z,95.38
2022-12-03T07:09:22.085Z,91.70
2022-12-03T07:11:48.733Z,90.13
2022-12-03T07:14:15.331Z,82.28
2022-12-03T07:16:41.983Z,88.72
2022-12-03T07:19:10.599Z,89.05
2022-12-03T07:21:37.584Z,88.45
2022-12-03T07:24:04.488Z,87.85
2022-12-03T07:26:31.229Z,98.95
2022-12-03T07:28:58.245Z,95.30
2022-12-03T07:31:24.905Z,87.65
2022-12-03T07:33:51.626Z,87.53
2022-12-03T07:36:19.831Z,88.60
2022-12-03T07:38:46.623Z,89.43
2022-12-03T07:41:13.266Z,89.97
2022-12-03T07:43:39.860Z,91.10
2022-12-03T07:46:06.458Z,92.72
2022-12-03T07:48:33.041Z,88.47
2022-12-03T07:50:59.799Z,98.95
2022-12-03T07:53:27.737Z,99.55
2022-12-03T07:55:54.272Z,92.53
2022-12-03T07:58:20.845Z,94.32
2022-12-03T08:00:47.689Z,93.93
2022-12-03T08:03:14.445Z,92.82
2022-12-03T08:05:41.336Z,88.93
2022-12-03T08:08:08.037Z,93.40
2022-12-03T08:10:36.092Z,82.00
2022-12-03T08:13:05.017Z,94.68
2022-12-03T08:15:38.525Z,89.43
2022-12-03T08:18:13.382Z,88.70
2022-12-03T08:20:41.318Z,85.00
2022-12-03T08:23:13.323Z,80.45
2022-12-03T08:25:41.690Z,90.93
2022-12-03T08:28:13.460Z,95.15
2022-12-03T08:30:40.900Z,89.75
2022-12-03T08:33:17.084Z,87.68
2022-12-03T08:35:48.388Z,77.47
2022-12-03T08:38:15.579Z,86.13
2022-12-03T08:40:46.778Z,89.03
2022-12-03T08:43:18.546Z,89.00
2022-12-03T08:45:45.597Z,81.65
2022-12-03T08:48:34.943Z,82.10
2022-12-03T08:51:09.087Z,87.78
2022-12-03T08:53:38.065Z,85.90
2022-12-03T08:56:20.946Z,93.78
2022-12-03T08:58:49.323Z,85.43
2022-12-03T09:01:38.780Z,90.72
2022-12-03T09:04:19.716Z,90.38
2022-12-03T09:06:46.361Z,86.57
2022-12-03T09:09:12.998Z,92.95
2022-12-03T09:11:41.166Z,94.22
2022-12-03T09:14:07.780Z,93.78
2022-12-03T09:16:34.695Z,93.70
2022-12-03T09:19:01.461Z,95.20
2022-12-03T09:21:28.150Z,93.82
2022-12-03T09:23:54.745Z,91.05
2022-12-03T09:26:21.380Z,86.18
2022-12-03T09:28:49.355Z,95.80
2022-12-03T09:31:16.680Z,83.22
2022-12-03T09:33:43.690Z,92.38
2022-12-03T09:36:10.287Z,91.95
2022-12-03T09:38:37.038Z,89.88
2022-12-03T09:41:03.743Z,90.32
2022-12-03T09:44:02.666Z,102.40
2022-12-03T09:46:22.845Z,89.47
2022-12-03T09:48:50.133Z,91.78
2022-12-03T09:51:17.971Z,88.55
2022-12-03T09:53:45.132Z,93.65
2022-12-03T09:56:18.251Z,90.78
2022-12-03T09:58:44.973Z,89.25
2022-12-03T10:01:14.854Z,90.95
2022-12-03T10:03:46.500Z,88.57
2022-12-03T10:06:17.580Z,90.57
2022-12-03T10:08:46.516Z,94.70
2022-12-03T10:11:13.168Z,86.38
2022-12-03T10:13:40.367Z,85.95
2022-12-03T10:16:10.479Z,98.65
2022-12-03T10:18:41.844Z,95.40
2022-12-03T10:21:18.667Z,78.15
2022-12-03T10:23:48.254Z,81.22
2022-12-03T10:26:16.941Z,86.57
2022-12-03T10:28:45.365Z,87.78
2022-12-03T10:31:15.194Z,86.78
2022-12-03T10:33:43.746Z,85.97
2022-12-03T10:36:24.587Z,97.45
2022-12-03T10:39:09.792Z,86.10
2022-12-03T10:41:37.133Z,83.32
2022-12-03T10:44:17.485Z,87.93
2022-12-03T10:46:44.782Z,78.40
2022-12-03T10:49:16.145Z,88.00
2022-12-03T10:51:44.477Z,81.80
2022-12-03T10:54:21.025Z,90.30
2022-12-03T10:56:49.578Z,82.38
2022-12-03T10:59:18.721Z,80.22
2022-12-03T11:01:45.924Z,90.55
2022-12-03T11:04:20.743Z,78.15
2022-12-03T11:06:49.648Z,80.85
2022-12-03T11:09:20.361Z,84.20
2022-12-03T11:11:48.255Z,83.90
2022-12-03T11:14:53.557Z,82.50
2022-12-03T11:17:43.724Z,84.32
2022-12-03T11:20:32.614Z,81.25
2022-12-03T11:23:00.666Z,93.90
2022-12-03T11:25:49.818Z,88.07
2022-12-03T11:28:38.413Z,90.05
2022-12-03T11:31:08.446Z,86.65
2022-12-03T11:33:37.163Z,88.72
2022-12-03T11:36:15.080Z,82.07
2022-12-03T11:38:54.692Z,89.43
2022-12-03T11:41:25.012Z,89.50
2022-12-03T11:44:00.098Z,80.03
2022-12-03T11:46:30.127Z,83.47
2022-12-03T11:48:59.791Z,88.18
2022-12-03T11:51:29.202Z,84.20
2022-12-03T11:53:59.776Z,81.32
2022-12-03T11:56:28.479Z,83.85
2022-12-03T11:58:59.936Z,91.93
2022-12-03T12:01:38.233Z,92.28
2022-12-03T12:04:06.916Z,87.82
2022-12-03T12:06:42.258Z,86.25
2022-12-03T12:09:10.988Z,80.05
2022-12-03T12:11:39.298Z,86.88
2022-12-03T12:14:06.724Z,90.18
2022-12-03T12:16:41.657Z,92.35
2022-12-03T12:19:28.148Z,94.90
2022-12-03T12:21:55.251Z,90.75
2022-12-03T12:24:30.900Z,90.63
2022-12-03T12:26:58.903Z,90.78
2022-12-03T12:29:25.573Z,86.70
2022-12-03T12:31:57.462Z,87.93
2022-12-03T12:34:25.216Z,96.07
2022-12-03T12:36:52.116Z,93.88
2022-12-03T12:39:18.657Z,84.22
2022-12-03T12:41:50.157Z,88.30
2022-12-03T12:44:16.781Z,92.68
2022-12-03T12:46:48.311Z,84.93
2022-12-03T12:49:15.799Z,92.78
2022-12-03T12:51:44.682Z,85.38
2022-12-03T12:54:13.577Z,91.28
2022-12-03T12:56:42.739Z,79.78
2022-12-03T12:59:13.072Z,93.18
2022-12-03T13:01:41.402Z,87.47
2022-12-03T13:04:10.981Z,89.47
2022-12-03T13:06:37.791Z,97.00
2022-12-03T13:09:08.975Z,82.40
2022-12-03T13:11:37.514Z,96.55
2022-12-03T13:14:13.296Z,78.95
2022-12-03T13:16:39.977Z,81.45
2022-12-03T13:19:19.579Z,83.00
2022-12-03T13:21:46.401Z,102.07
2022-12-03T13:24:32.059Z,83.28
2022-12-03T13:27:00.129Z,82.75
2022-12-03T13:29:28.380Z,95.90
2022-12-03T13:31:57.202Z,95.13
2022-12-03T13:34:26.422Z,86.47
2022-12-03T13:36:58.153Z,101.07
2022-12-03T13:39:30.864Z,93.45
2022-12-03T13:42:00.783Z,100.97
2022-12-03T13:44:30.434Z,100.18
2022-12-03T13:46:57.121Z,105.18
2022-12-03T13:49:24.178Z,98.15
2022-12-03T13:51:50.994Z,101.05
2022-12-03T13:54:21.601Z,92.18
2022-12-03T13:56:49.169Z,97.07
2022-12-03T13:59:18.381Z,90.82
2022-12-03T14:01:48.511Z,90.38
2022-12-03T14:04:15.190Z,92.07
2022-12-03T14:06:41.919Z,100.18
2022-12-03T14:09:08.550Z,99.13
2022-12-03T14:11:35.231Z,100.55
2022-12-03T14:14:02.133Z,95.80
2022-12-03T14:16:28.755Z,94.85
2022-12-03T14:18:56.867Z,91.38
2022-12-03T14:21:23.449Z,92.38
2022-12-03T14:23:50.046Z,91.65
2022-12-03T14:26:16.635Z,85.65
2022-12-03T14:28:43.296Z,86.70
2022-12-03T14:31:09.882Z,95.38
2022-12-03T14:33:36.513Z,91.03
2022-12-03T14:36:05.277Z,92.28
2022-12-03T14:38:31.914Z,97.00
2022-12-03T14:40:58.481Z,82.30
2022-12-03T14:43:25.039Z,92.15
2022-12-03T14:45:51.794Z,93.18
2022-12-03T14:48:18.480Z,99.13
2022-12-03T14:50:45.138Z,93.90
2022-12-03T14:53:13.047Z,95.53
2022-12-03T14:55:39.677Z,92.07
2022-12-03T14:58:06.284Z,84.28
2022-12-03T15:00:32.974Z,84.25
2022-12-03T15:02:59.622Z,90.35
2022-12-03T15:05:28.816Z,103.75
2022-12-03T15:07:56.063Z,98.38
2022-12-03T15:10:24.101Z,100.15
2022-12-03T15:12:50.721Z,101.38
2022-12-03T15:15:17.286Z,87.35
2022-12-03T15:17:43.910Z,95.18
2022-12-03T15:20:11.564Z,100.40
2022-12-03T15:22:38.113Z,97.43
2022-12-03T15:25:05.438Z,97.93
2022-12-03T15:27:33.377Z,91.47
2022-12-03T15:29:59.986Z,87.18
2022-12-03T15:32:26.653Z,84.50
2022-12-03T15:34:53.316Z,85.25
2022-12-03T15:37:19.944Z,80.25
2022-12-03T15:39:48.730Z,83.00
2022-12-03T15:42:15.657Z,86.85
2022-12-03T15:44:43.630Z,82.82
2022-12-03T15:47:10.168Z,89.22
2022-12-03T15:49:36.768Z,89.18
2022-12-03T15:52:03.412Z,86.18
2022-12-03T15:54:30.110Z,78.43
2022-12-03T15:56:57.656Z,88.03
2022-12-03T15:59:24.460Z,83.50
2022-12-03T16:01:52.581Z,77.80
2022-12-03T16:04:19.244Z,95.03
2022-12-03T16:06:45.983Z,82.40
2022-12-03T16:09:12.567Z,81.88
2022-12-03T16:11:39.100Z,92.00
2022-12-03T16:14:05.680Z,90.85
2022-12-03T16:16:32.485Z,73.88
2022-12-03T16:19:00.623Z,96.43
2022-12-03T16:21:27.529Z,82.63
2022-12-03T16:23:54.868Z,88.85
2022-12-03T16:26:21.856Z,80.88
2022-12-03T16:28:48.542Z,91.10
2022-12-03T16:31:15.343Z,87.15
2022-12-03T16:33:42.078Z,91.05
2022-12-03T16:36:10.684Z,88.25
2022-12-03T16:38:37.322Z,90.32
2022-12-03T16:41:03.968Z,90.32
2022-12-03T16:43:30.738Z,82.85
2022-12-03T16:45:57.387Z,88.00
2022-12-03T16:48:24.216Z,87.97
2022-12-03T16:50:50.942Z,80.22
2022-12-03T16:53:19.141Z,79.68
2022-12-03T16:55:45.664Z,79.95
2022-12-03T16:58:12.357Z,87.00
2022-12-03T17:00:38.915Z,97.13
2022-12-03T17:03:05.597Z,76.90
2022-12-03T17:05:32.359Z,92.90
2022-12-03T17:07:58.959Z,93.65
2022-12-03T17:10:27.185Z,79.68
2022-12-03T17:13:10.363Z,78.07
2022-12-03T17:15:37.747Z,79.25
2022-12-03T17:18:04.904Z,84.78
2022-12-03T17:20:32.173Z,101.80
2022-12-03T17:22:59.366Z,82.95
2022-12-03T17:25:28.006Z,87.72
2022-12-03T17:27:54.837Z,87.78
2022-12-03T17:30:21.536Z,81.57
2022-12-03T17:32:48.082Z,80.22
2022-12-03T17:35:14.804Z,89.32
2022-12-03T17:37:41.390Z,83.47
2022-12-03T17:40:10.399Z,87.70
2022-12-03T17:42:38.353Z,88.35
2022-12-03T17:45:06.207Z,85.45
2022-12-03T17:47:32.836Z,89.50
2022-12-03T17:49:59.636Z,84.30
2022-12-03T17:52:26.418Z,84.20
2022-12-03T17:55:10.764Z,85.70
2022-12-03T17:57:40.029Z,87.60
2022-12-03T18:00:07.910Z,89.38
2022-12-03T18:02:34.508Z,85.53
2022-12-03T18:05:01.125Z,84.63
2022-12-03T18:07:27.757Z,89.43
2022-12-03T18:09:54.687Z,88.43
2022-12-03T18:12:21.482Z,85.60
2022-12-03T18:14:49.518Z,90.88
2022-12-03T18:17:16.174Z,84.68
2022-12-03T18:19:42.729Z,85.93
2022-12-03T18:22:09.571Z,79.85
2022-12-03T18:24:36.320Z,89.78
2022-12-03T18:27:02.935Z,88.05
2022-12-03T18:29:29.529Z,84.20
2022-12-03T18:31:57.640Z,89.65
2022-12-03T18:34:24.250Z,92.93
2022-12-03T18:36:50.986Z,94.88
2022-12-03T18:39:23.949Z,94.50
2022-12-03T18:41:50.649Z,93.20
2022-12-03T18:44:17.270Z,87.78
2022-12-03T18:46:59.208Z,88.38
2022-12-03T18:49:27.231Z,83.57
2022-12-03T18:51:58.991Z,89.38
2022-12-03T18:54:26.116Z,88.30
2022-12-03T18:56:52.730Z,85.40
2022-12-03T18:59:19.604Z,89.10
2022-12-03T19:01:46.284Z,89.85
2022-12-03T19:04:12.924Z,87.82
2022-12-03T19:06:40.910Z,97.15
2022-12-03T19:09:07.478Z,87.53
2022-12-03T19:11:34.178Z,88.90
2022-12-03T19:14:00.801Z,91.72
2022-12-03T19:16:27.444Z,89.18
2022-12-03T19:18:54.956Z,86.13
2022-12-03T19:21:22.047Z,91.28
2022-12-03T19:24:22.108Z,86.38
2022-12-03T19:26:36.745Z,90.40
2022-12-03T19:29:03.448Z,88.78
2022-12-03T19:31:30.204Z,89.10
2022-12-03T19:33:56.841Z,91.30
2022-12-03T19:36:25.208Z,89.82
2022-12-03T19:38:57.232Z,99.68
2022-12-03T19:41:25.960Z,93.95
2022-12-03T19:43:54.886Z,92.28
2022-12-03T19:46:23.646Z,94.18
2022-12-03T19:48:50.714Z,95.85
2022-12-03T19:51:33.513Z,103.50
2022-12-03T19:54:02.876Z,81.25
2022-12-03T19:56:29.628Z,92.45
2022-12-03T19:58:56.631Z,103.95
2022-12-03T20:01:25.041Z,96.82
2022-12-03T20:03:55.162Z,97.38
2022-12-03T20:06:24.663Z,99.70
2022-12-03T20:08:54.856Z,96.00
2022-12-03T20:11:24.373Z,89.72
2022-12-03T20:13:53.570Z,91.20
2022-12-03T20:16:20.249Z,103.05
2022-12-03T20:18:48.799Z,95.32
2022-12-03T20:21:17.790Z,100.95
2022-12-03T20:23:44.857Z,95.25
2022-12-03T20:26:13.347Z,105.13
2022-12-03T20:28:41.943Z,102.47
2022-12-03T20:31:10.454Z,104.38
2022-12-03T20:33:37.361Z,102.70
2022-12-03T20:36:05.283Z,101.40
2022-12-03T20:38:31.929Z,102.68
2022-12-03T20:41:00.935Z,105.28
2022-12-03T20:43:28.322Z,101.10
2022-12-03T20:46:02.422Z,100.78
2022-12-03T20:48:29.678Z,106.97
2022-12-03T20:50:56.279Z,102.13
2022-12-03T20:53:25.362Z,98.65
2022-12-03T20:55:55.370Z,95.50
2022-12-03T20:58:21.994Z,105.00
2022-12-03T21:00:48.745Z,98.63
2022-12-03T21:03:16.966Z,105.10
2022-12-03T21:05:43.615Z,98.18
2022-12-03T21:08:11.166Z,101.20
2022-12-03T21:10:38.207Z,103.85
2022-12-03T21:13:04.878Z,102.93
2022-12-03T21:15:31.466Z,103.55
2022-12-03T21:17:58.182Z,111.32
2022-12-03T21:20:26.286Z,111.90
2022-12-03T21:22:52.967Z,103.15
2022-12-03T21:25:19.501Z,101.75
2022-12-03T21:27:46.121Z,102.25
2022-12-03T21:30:13.340Z,97.05
2022-12-03T21:32:39.960Z,98.53
2022-12-03T21:35:07.197Z,92.82
2022-12-03T21:37:35.148Z,101.25
2022-12-03T21:40:01.684Z,108.88
2022-12-03T21:42:36.883Z,98.00
2022-12-03T21:45:05.130Z,99.95
2022-12-03T21:47:36.982Z,111.43
2022-12-03T21:50:06.046Z,99.60
2022-12-03T21:52:35.030Z,113.47
2022-12-03T21:55:01.706Z,98.80
2022-12-03T21:57:28.361Z,106.70
2022-12-03T21:59:55.531Z,102.35
2022-12-03T22:02:22.367Z,103.68
2022-12-03T22:04:49.663Z,115.53
2022-12-03T22:07:16.692Z,109.97
2022-12-03T22:09:44.625Z,100.80
2022-12-03T22:12:11.308Z,108.65
2022-12-03T22:14:37.922Z,103.85
2022-12-03T22:17:04.527Z,94.93
2022-12-03T22:19:31.316Z,105.28
2022-12-03T22:21:57.921Z,108.22
2022-12-03T22:24:24.532Z,113.70
2022-12-03T22:26:52.506Z,108.68
2022-12-03T22:29:19.125Z,119.25
2022-12-03T22:31:45.714Z,104.50
2022-12-03T22:34:12.413Z,102.13
2022-12-03T22:36:39.016Z,113.00
2022-12-03T22:39:05.614Z,108.97
2022-12-03T22:41:32.166Z,122.50
2022-12-03T22:44:00.135Z,113.22
2022-12-03T22:46:27.034Z,115.22
2022-12-03T22:48:53.641Z,119.15
2022-12-03T22:51:22.293Z,112.55
2022-12-03T22:53:53.841Z,112.60
2022-12-03T22:56:20.465Z,109.35
2022-12-03T22:58:47.149Z,100.72
2022-12-03T23:01:21.612Z,109.40
2022-12-03T23:03:48.342Z,117.88
2022-12-03T23:06:15.125Z,110.30
2022-12-03T23:08:41.867Z,106.78
2022-12-03T23:11:08.836Z,107.38
2022-12-03T23:13:35.769Z,108.95
2022-12-03T23:16:02.722Z,107.38
2022-12-03T23:18:30.899Z,115.30
2022-12-03T23:20:57.687Z,108.35
2022-12-03T23:23:27.115Z,111.72
2022-12-03T23:25:57.502Z,106.00
2022-12-03T23:28:24.177Z,104.00
2022-12-03T23:30:50.813Z,114.93
2022-12-03T23:33:17.365Z,105.78
2022-12-03T23:35:45.375Z,109.68
2022-12-03T23:38:12.275Z,112.50
2022-12-03T23:40:42.273Z,103.55
2022-12-03T23:43:11.462Z,109.70
2022-12-03T23:45:38.052Z,115.78
2022-12-03T23:48:04.843Z,103.15
2022-12-03T23:50:31.715Z,119.28
2022-12-03T23:52:59.694Z,110.88
2022-12-03T23:55:26.239Z,116.07
2022-12-03T23:57:52.827Z,115.38
